Time;durP1;ratioP1;P1;durP2;ratioP2;P2;SDS_P1;SDS_P2;PMS_P1;PMS_P2;Temp;Humidity;BMP_temperature;BMP_pressure;BME280_temperature;BME280_humidity;BME280_pressure;Samples;Min_cycle;Max_cycle;Signal;HPM_P1;HPM_P2
2022/09/11 00:00:58;;;;;;;0.10;0.10;;;19.30;99.90;;;;;;5084972;28;20020;-89
2022/09/11 00:03:24;;;;;;;0.05;0.05;;;19.30;99.90;;;;;;5100508;28;20020;-90
2022/09/11 00:05:51;;;;;;;0.10;0.10;;;19.20;99.90;;;;;;5101755;28;20052;-90
2022/09/11 00:08:20;;;;;;;0.10;0.10;;;17.90;99.90;;;;;;5100988;28;20032;-85
2022/09/11 00:10:47;;;;;;;0.10;0.10;;;19.60;99.90;;;;;;5100201;28;20039;-83
2022/09/11 00:13:18;;;;;;;0.00;0.00;;;19.50;99.90;;;;;;5086771;28;20143;-85
2022/09/11 00:15:44;;;;;;;0.10;0.10;;;19.60;99.90;;;;;;5085341;28;20581;-85
2022/09/11 00:18:13;;;;;;;0.10;0.10;;;19.50;99.90;;;;;;5087695;28;20071;-95
2022/09/11 00:20:39;;;;;;;0.10;0.10;;;19.60;99.90;;;;;;5105640;28;20025;-91
2022/09/11 00:23:05;;;;;;;0.10;0.10;;;18.80;99.90;;;;;;5087076;28;20372;-88
2022/09/11 00:25:35;;;;;;;0.00;0.00;;;17.70;99.90;;;;;;5104935;28;20024;-81
2022/09/11 00:28:01;;;;;;;0.08;0.08;;;16.80;99.90;;;;;;5106296;28;20043;-84
2022/09/11 00:30:28;;;;;;;0.10;0.10;;;16.50;99.90;;;;;;5108570;28;20030;-81
2022/09/11 00:32:54;;;;;;;0.05;0.05;;;16.60;99.90;;;;;;5109661;28;20262;-87
2022/09/11 00:35:20;;;;;;;0.10;0.10;;;17.20;99.90;;;;;;5113399;28;20283;-83
2022/09/11 00:37:47;;;;;;;0.10;0.10;;;17.10;99.90;;;;;;5107767;28;20228;-85
2022/09/11 00:40:14;;;;;;;0.35;0.35;;;17.70;99.90;;;;;;5091492;28;20023;-92
2022/09/11 00:42:41;;;;;;;0.10;0.10;;;18.00;99.90;;;;;;5109973;28;20312;-90
2022/09/11 00:45:14;;;;;;;0.10;0.10;;;18.60;99.90;;;;;;5091918;28;20015;-87
2022/09/11 00:47:42;;;;;;;11.18;10.30;;;18.50;99.90;;;;;;5109952;28;20036;-88
2022/09/11 00:50:20;;;;;;;0.00;0.00;;;18.70;99.90;;;;;;5108206;28;20039;-91
2022/09/11 00:53:01;;;;;;;0.10;0.10;;;18.70;99.90;;;;;;5106069;28;20537;-95
2022/09/11 00:55:31;;;;;;;0.10;0.10;;;19.10;99.90;;;;;;5104556;28;20224;-91
2022/09/11 00:58:15;;;;;;;0.08;0.08;;;19.20;99.90;;;;;;5110453;28;20369;-94
2022/09/11 01:00:44;;;;;;;0.10;0.10;;;19.40;99.90;;;;;;5111943;28;20023;-86
2022/09/11 01:03:11;;;;;;;4.82;4.63;;;19.60;99.90;;;;;;5088152;28;20024;-87
2022/09/11 01:05:40;;;;;;;0.10;0.10;;;19.60;99.90;;;;;;5110925;28;20103;-88
2022/09/11 01:08:07;;;;;;;0.00;0.00;;;19.80;99.90;;;;;;5105431;28;20020;-92
2022/09/11 01:11:25;;;;;;;0.10;0.10;;;19.90;99.90;;;;;;5108261;28;20047;-90
2022/09/11 01:14:18;;;;;;;0.10;0.10;;;19.90;99.90;;;;;;5006378;28;20039;-89
2022/09/11 01:17:04;;;;;;;0.98;0.98;;;19.10;99.90;;;;;;5005376;28;20244;-88
2022/09/11 01:19:53;;;;;;;1.17;1.17;;;19.30;99.90;;;;;;5021493;28;20032;-88
2022/09/11 01:22:30;;;;;;;0.10;0.10;;;19.30;99.90;;;;;;5021504;28;20428;-84
2022/09/11 01:25:05;;;;;;;0.10;0.10;;;19.40;99.90;;;;;;5023198;28;20538;-79
2022/09/11 01:27:42;;;;;;;0.10;0.10;;;19.50;99.90;;;;;;5023404;28;20656;-87
2022/09/11 01:30:10;;;;;;;0.00;0.00;;;19.60;99.90;;;;;;5025081;28;20026;-90
2022/09/11 01:33:00;;;;;;;0.10;0.10;;;16.60;99.90;;;;;;5007993;28;20060;-85
2022/09/11 01:35:46;;;;;;;0.10;0.10;;;19.00;99.90;;;;;;5024844;28;20053;-92
2022/09/11 01:38:18;;;;;;;0.00;0.00;;;18.50;99.90;;;;;;5025076;28;20053;-82
2022/09/11 01:40:54;;;;;;;0.20;0.20;;;18.10;99.90;;;;;;5025852;28;20029;-80
2022/09/11 01:43:29;;;;;;;0.10;0.10;;;19.00;99.90;;;;;;5024825;28;20460;-86
2022/09/11 01:46:06;;;;;;;0.10;0.10;;;19.00;99.90;;;;;;5015556;28;20029;-82
2022/09/11 01:48:45;;;;;;;0.10;0.10;;;15.70;99.90;;;;;;5039469;28;20033;-79
2022/09/11 01:51:23;;;;;;;0.00;0.00;;;18.00;99.90;;;;;;5107489;28;20043;-79
2022/09/11 01:53:53;;;;;;;0.10;0.10;;;18.20;99.90;;;;;;5119140;28;20036;-81
2022/09/11 01:56:34;;;;;;;0.10;0.10;;;18.50;99.90;;;;;;5089716;28;20053;-82
2022/09/11 01:59:05;;;;;;;0.10;0.10;;;18.40;99.90;;;;;;5104382;28;20047;-79
2022/09/11 02:01:37;;;;;;;0.10;0.10;;;18.70;99.90;;;;;;5105391;28;20129;-82
2022/09/11 02:04:13;;;;;;;0.10;0.10;;;19.10;99.90;;;;;;5124672;28;20036;-76
2022/09/11 02:06:48;;;;;;;2.83;2.72;;;19.10;99.90;;;;;;5123911;28;20028;-78
2022/09/11 02:09:20;;;;;;;0.00;0.00;;;19.00;99.90;;;;;;5122362;28;20023;-95
2022/09/11 02:11:49;;;;;;;0.57;0.57;;;19.20;99.90;;;;;;5118951;28;20054;-83
2022/09/11 02:14:29;;;;;;;0.10;0.10;;;19.30;99.90;;;;;;5118220;28;20035;-77
2022/09/11 02:17:08;;;;;;;0.10;0.10;;;19.40;99.90;;;;;;5115854;28;20036;-89
2022/09/11 02:19:34;;;;;;;0.10;0.10;;;19.40;99.90;;;;;;5118881;28;20373;-83
2022/09/11 02:22:04;;;;;;;0.10;0.10;;;19.50;99.90;;;;;;5116410;28;20039;-87
2022/09/11 02:24:30;;;;;;;0.00;0.00;;;19.60;99.90;;;;;;5118664;28;20034;-91
2022/09/11 02:27:04;;;;;;;0.10;0.10;;;19.60;99.90;;;;;;5099621;28;20031;-85
2022/09/11 02:29:31;;;;;;;0.00;0.00;;;19.30;99.90;;;;;;5119128;28;20026;-87
2022/09/11 02:31:59;;;;;;;0.10;0.10;;;19.50;99.90;;;;;;5118772;28;20043;-89
2022/09/11 02:34:28;;;;;;;0.10;0.10;;;19.60;99.90;;;;;;5109918;28;20575;-78
2022/09/11 02:37:37;;;;;;;0.40;0.40;;;19.70;99.90;;;;;;5098572;28;20040;-85
2022/09/11 02:40:18;;;;;;;0.10;0.10;;;21.90;99.90;;;;;;5110889;28;20012;-79
2022/09/11 02:43:09;;;;;;;0.10;0.10;;;19.30;99.90;;;;;;5089329;28;20027;-81
2022/09/11 02:46:07;;;;;;;1.30;1.25;;;19.80;99.90;;;;;;5113572;28;20085;-82
2022/09/11 02:48:46;;;;;;;0.10;0.10;;;19.70;99.90;;;;;;5112805;28;20023;-78
2022/09/11 02:51:31;;;;;;;6.43;6.03;;;19.70;99.90;;;;;;5091675;28;20197;-84
2022/09/11 02:54:34;;;;;;;0.10;0.10;;;19.80;99.90;;;;;;5110425;28;20032;-87
2022/09/11 02:57:13;;;;;;;0.10;0.10;;;19.80;99.90;;;;;;5103431;28;20035;-91
2022/09/11 02:59:45;;;;;;;0.47;0.47;;;19.90;99.90;;;;;;5105347;28;20508;-91
2022/09/11 03:02:17;;;;;;;0.10;0.10;;;19.70;99.90;;;;;;5106693;28;20016;-94
2022/09/11 03:04:44;;;;;;;0.00;0.00;;;19.80;99.90;;;;;;5109532;28;20049;-84
2022/09/11 03:07:10;;;;;;;0.10;0.10;;;19.90;99.90;;;;;;5103448;28;20024;-86
2022/09/11 03:09:36;;;;;;;0.10;0.10;;;19.90;99.90;;;;;;5104205;28;20019;-91
2022/09/11 03:12:03;;;;;;;0.10;0.10;;;20.00;99.90;;;;;;5103437;28;20058;-89
2022/09/11 03:14:30;;;;;;;0.10;0.10;;;19.90;99.90;;;;;;5107667;28;20019;-85
2022/09/11 03:16:55;;;;;;;0.10;0.10;;;20.00;99.90;;;;;;5105292;28;20034;-88
2022/09/11 03:19:22;;;;;;;0.00;0.00;;;20.50;99.90;;;;;;5091825;28;20024;-92
2022/09/11 03:21:53;;;;;;;0.10;0.10;;;20.00;99.90;;;;;;5108468;28;20031;-84
2022/09/11 03:24:19;;;;;;;0.10;0.10;;;19.70;99.90;;;;;;5109916;28;20020;-81
2022/09/11 03:26:45;;;;;;;0.00;0.00;;;19.60;99.90;;;;;;5119177;28;20028;-86
2022/09/11 03:29:14;;;;;;;0.10;0.10;;;19.50;99.90;;;;;;5115323;28;20266;-89
2022/09/11 03:31:40;;;;;;;0.10;0.10;;;18.90;99.90;;;;;;5103422;28;20031;-91
2022/09/11 03:34:09;;;;;;;0.10;0.10;;;19.80;99.90;;;;;;5081947;28;20024;-83
2022/09/11 03:36:39;;;;;;;0.10;0.10;;;19.90;99.90;;;;;;5101224;28;20030;-93
2022/09/11 03:39:06;;;;;;;0.10;0.10;;;19.80;99.90;;;;;;5105815;28;20020;-95
2022/09/11 03:41:32;;;;;;;0.10;0.10;;;19.80;99.90;;;;;;5099763;28;20019;-86
2022/09/11 03:43:58;;;;;;;0.10;0.10;;;19.80;99.90;;;;;;5121024;28;20045;-95
2022/09/11 03:46:26;;;;;;;0.10;0.10;;;19.90;99.90;;;;;;5120699;28;20106;-90
2022/09/11 03:48:56;;;;;;;0.38;0.38;;;19.80;99.90;;;;;;5094568;28;20367;-87
2022/09/11 03:51:22;;;;;;;0.10;0.10;;;19.80;99.90;;;;;;5115473;28;20039;-90
2022/09/11 03:53:52;;;;;;;0.20;0.20;;;19.70;99.90;;;;;;5122544;28;20031;-83
2022/09/11 03:56:19;;;;;;;0.10;0.10;;;19.30;99.90;;;;;;5118115;28;20031;-84
2022/09/11 03:58:45;;;;;;;0.10;0.10;;;19.40;99.90;;;;;;5123105;28;20036;-89
2022/09/11 04:01:13;;;;;;;0.10;0.10;;;19.30;99.90;;;;;;5119651;28;20024;-77
2022/09/11 04:03:41;;;;;;;0.08;0.08;;;19.20;99.90;;;;;;5115315;28;21592;-81
2022/09/11 04:06:13;;;;;;;0.10;0.10;;;19.20;99.90;;;;;;5101583;28;20028;-80
2022/09/11 04:08:46;;;;;;;0.10;0.10;;;18.90;99.90;;;;;;5121972;28;20016;-81
2022/09/11 04:11:13;;;;;;;0.10;0.10;;;18.00;99.90;;;;;;5122053;28;20126;-91
2022/09/11 04:13:45;;;;;;;0.10;0.10;;;19.30;99.90;;;;;;5120780;28;20042;-83
2022/09/11 04:16:13;;;;;;;0.20;0.20;;;17.90;99.90;;;;;;5118420;28;20031;-89
2022/09/11 04:18:40;;;;;;;0.10;0.10;;;20.50;99.90;;;;;;5118612;28;20114;-88
2022/09/11 04:21:09;;;;;;;0.10;0.10;;;19.60;99.90;;;;;;5119592;28;20091;-81
2022/09/11 04:23:35;;;;;;;0.45;0.45;;;19.60;99.90;;;;;;5113318;28;20047;-88
2022/09/11 04:26:11;;;;;;;5.25;4.72;;;19.50;99.90;;;;;;5120549;28;20012;-90
2022/09/11 04:28:36;;;;;;;0.10;0.10;;;19.50;99.90;;;;;;5115689;28;20012;-85
2022/09/11 04:31:03;;;;;;;0.65;0.55;;;19.60;99.90;;;;;;5117570;28;20020;-82
2022/09/11 04:33:28;;;;;;;0.20;0.20;;;19.50;99.90;;;;;;5119792;28;20102;-77
2022/09/11 04:36:00;;;;;;;0.85;0.85;;;;;;;;;;5116485;28;20043;-86
2022/09/11 04:38:28;;;;;;;0.10;0.10;;;19.40;99.90;;;;;;5119454;28;20059;-84
2022/09/11 04:41:16;;;;;;;0.10;0.10;;;19.40;99.90;;;;;;5116982;28;20020;-85
2022/09/11 04:43:42;;;;;;;1.67;1.65;;;19.30;99.90;;;;;;5118198;28;20062;-81
2022/09/11 04:46:16;;;;;;;0.47;0.47;;;19.50;99.90;;;;;;5112566;28;20619;-77
2022/09/11 04:49:01;;;;;;;0.08;0.08;;;19.30;99.90;;;;;;5115967;28;20069;-84
2022/09/11 04:51:38;;;;;;;0.10;0.10;;;19.40;99.90;;;;;;5099726;28;20040;-92
2022/09/11 04:54:06;;;;;;;0.10;0.10;;;21.30;99.90;;;;;;5115489;28;20030;-79
2022/09/11 04:56:36;;;;;;;2.88;0.73;;;19.20;99.90;;;;;;5107631;28;20023;-79
2022/09/11 04:59:06;;;;;;;0.17;0.17;;;16.90;99.90;;;;;;5090695;28;20058;-78
2022/09/11 05:01:33;;;;;;;0.17;0.17;;;19.10;99.90;;;;;;5111924;28;20101;-88
2022/09/11 05:04:22;;;;;;;0.10;0.10;;;19.00;99.90;;;;;;5116475;28;20019;-82
2022/09/11 05:06:48;;;;;;;0.20;0.20;;;18.80;99.90;;;;;;5110775;28;20208;-78
2022/09/11 05:09:16;;;;;;;0.10;0.10;;;19.10;99.90;;;;;;5111560;28;20296;-81
2022/09/11 05:11:41;;;;;;;0.10;0.10;;;19.20;99.90;;;;;;5091149;28;20055;-88
2022/09/11 05:14:08;;;;;;;0.10;0.10;;;19.30;99.90;;;;;;5105353;28;20023;-83
2022/09/11 05:16:35;;;;;;;0.10;0.10;;;19.60;99.90;;;;;;5106519;28;20456;-84
2022/09/11 05:19:03;;;;;;;0.10;0.10;;;19.70;99.90;;;;;;5104355;28;20106;-81
2022/09/11 05:21:30;;;;;;;0.10;0.10;;;19.80;99.90;;;;;;5086138;28;20243;-78
2022/09/11 05:23:58;;;;;;;0.10;0.10;;;19.90;99.90;;;;;;5107981;28;20020;-78
2022/09/11 05:26:30;;;;;;;0.10;0.10;;;20.00;99.90;;;;;;5108077;28;20027;-84
2022/09/11 05:28:57;;;;;;;0.10;0.10;;;20.00;99.90;;;;;;5110973;28;20015;-78
2022/09/11 05:31:24;;;;;;;1.55;1.48;;;20.20;99.90;;;;;;5109817;28;20027;-79
2022/09/11 05:33:54;;;;;;;0.00;0.00;;;20.10;99.90;;;;;;5110329;28;20023;-86
2022/09/11 05:36:21;;;;;;;0.10;0.10;;;;;;;;;;5107647;28;20054;-82
2022/09/11 05:38:47;;;;;;;0.08;0.08;;;20.20;99.90;;;;;;5110108;28;20418;-82
2022/09/11 05:41:14;;;;;;;0.00;0.00;;;20.10;99.90;;;;;;5108776;28;20096;-80
2022/09/11 05:43:40;;;;;;;0.10;0.10;;;20.20;99.90;;;;;;5087304;28;20031;-82
2022/09/11 05:46:10;;;;;;;0.00;0.00;;;20.30;99.90;;;;;;5086293;28;20035;-83
2022/09/11 05:48:36;;;;;;;0.10;0.10;;;21.00;99.90;;;;;;5085253;28;20062;-80
2022/09/11 05:51:06;;;;;;;0.00;0.00;;;20.20;99.90;;;;;;5105631;28;20386;-91
2022/09/11 05:53:32;;;;;;;1.35;1.35;;;20.10;99.90;;;;;;5105556;28;20300;-81
2022/09/11 05:56:04;;;;;;;0.10;0.10;;;20.30;99.90;;;;;;5102465;28;20368;-84
2022/09/11 05:58:31;;;;;;;0.00;0.00;;;20.40;99.90;;;;;;5102863;28;20034;-86
2022/09/11 06:01:08;;;;;;;0.10;0.10;;;20.40;99.90;;;;;;5103270;28;20576;-93
2022/09/11 06:03:35;;;;;;;0.10;0.10;;;20.50;99.90;;;;;;5085855;28;20158;-91
2022/09/11 06:06:06;;;;;;;0.00;0.00;;;20.50;99.90;;;;;;5103647;28;20039;-83
2022/09/11 06:08:33;;;;;;;0.00;0.00;;;;;;;;;;5102934;28;20015;-84
2022/09/11 06:11:05;;;;;;;0.03;0.03;;;20.50;99.90;;;;;;5101302;28;20042;-93
2022/09/11 06:13:33;;;;;;;0.10;0.10;;;18.80;99.90;;;;;;5085293;28;20342;-92
2022/09/11 06:16:01;;;;;;;0.10;0.10;;;20.70;99.90;;;;;;5103101;28;20028;-83
2022/09/11 06:18:27;;;;;;;0.00;0.00;;;18.60;99.90;;;;;;5102619;28;20035;-90
2022/09/11 06:21:08;;;;;;;0.10;0.10;;;20.60;99.90;;;;;;5105441;28;20012;-92
2022/09/11 06:23:35;;;;;;;0.10;0.10;;;20.60;99.90;;;;;;5105730;28;20080;-78
2022/09/11 06:26:04;;;;;;;0.10;0.10;;;20.50;99.90;;;;;;5083893;28;20096;-86
2022/09/11 06:28:30;;;;;;;0.10;0.10;;;20.50;99.90;;;;;;5102228;28;20015;-80
2022/09/11 06:30:56;;;;;;;0.00;0.00;;;20.60;99.90;;;;;;5102095;28;20102;-87
2022/09/11 06:33:22;;;;;;;4.00;3.75;;;20.60;99.90;;;;;;5084192;28;20026;-86
2022/09/11 06:36:19;;;;;;;0.10;0.10;;;20.30;99.90;;;;;;5103067;28;20019;-78
2022/09/11 06:38:50;;;;;;;0.00;0.00;;;20.80;99.90;;;;;;5100449;28;20048;-87
2022/09/11 06:41:16;;;;;;;0.10;0.10;;;20.90;99.90;;;;;;5101773;28;20585;-82
2022/09/11 06:43:43;;;;;;;0.10;0.10;;;20.90;99.90;;;;;;5101880;28;20039;-80
2022/09/11 06:46:15;;;;;;;0.10;0.10;;;20.90;99.90;;;;;;5101592;28;20027;-78
2022/09/11 06:48:42;;;;;;;0.10;0.10;;;21.50;99.90;;;;;;5082856;28;20546;-83
2022/09/11 06:51:10;;;;;;;0.00;0.00;;;20.90;99.90;;;;;;5100886;28;20111;-84
2022/09/11 06:53:38;;;;;;;0.10;0.10;;;21.00;99.90;;;;;;5109381;28;20023;-83
2022/09/11 06:56:05;;;;;;;0.80;0.80;;;21.10;99.90;;;;;;5094491;28;20028;-87
2022/09/11 06:58:33;;;;;;;0.10;0.10;;;21.20;99.90;;;;;;5110336;28;20269;-80
2022/09/11 07:01:06;;;;;;;0.10;0.10;;;21.20;99.90;;;;;;5105011;28;20106;-85
2022/09/11 07:03:32;;;;;;;0.10;0.10;;;21.20;99.90;;;;;;5105411;28;20031;-84
2022/09/11 07:05:59;;;;;;;0.10;0.10;;;21.00;99.90;;;;;;5112182;28;20024;-86
2022/09/11 07:08:25;;;;;;;0.00;0.00;;;20.60;99.90;;;;;;5097141;28;20027;-87
2022/09/11 07:11:08;;;;;;;0.00;0.00;;;20.20;99.90;;;;;;5102223;28;20055;-81
2022/09/11 07:13:54;;;;;;;0.00;0.00;;;20.00;99.90;;;;;;5107926;28;20039;-77
2022/09/11 07:16:29;;;;;;;0.10;0.10;;;19.90;99.90;;;;;;5098293;28;20027;-78
2022/09/11 07:18:57;;;;;;;0.43;0.43;;;19.30;99.90;;;;;;5105674;28;20536;-86
2022/09/11 07:21:30;;;;;;;0.10;0.10;;;20.00;99.90;;;;;;5119275;28;20039;-81
2022/09/11 07:24:03;;;;;;;0.10;0.10;;;19.90;99.90;;;;;;5129458;28;20035;-79
2022/09/11 07:26:30;;;;;;;2.58;2.47;;;;;;;;;;5118282;28;20019;-77
2022/09/11 07:28:59;;;;;;;0.00;0.00;;;19.80;99.90;;;;;;5093260;28;20020;-81
2022/09/11 07:31:31;;;;;;;0.10;0.10;;;19.90;99.90;;;;;;5090621;28;20489;-90
2022/09/11 07:33:58;;;;;;;0.00;0.00;;;19.90;99.90;;;;;;5105817;28;20015;-88
2022/09/11 07:36:30;;;;;;;0.20;0.20;;;20.60;99.90;;;;;;5108262;28;20269;-87
2022/09/11 07:38:56;;;;;;;0.10;0.10;;;19.80;99.90;;;;;;5087146;28;20024;-84
2022/09/11 07:41:23;;;;;;;0.10;0.10;;;19.50;99.90;;;;;;5106168;28;20026;-78
2022/09/11 07:43:54;;;;;;;0.10;0.10;;;19.60;99.90;;;;;;5105346;28;20019;-86
2022/09/11 07:46:21;;;;;;;0.17;0.17;;;19.60;99.90;;;;;;5106078;28;20020;-78
2022/09/11 07:48:47;;;;;;;0.13;0.13;;;;;;;;;;5106651;28;20059;-85
2022/09/11 07:51:19;;;;;;;0.30;0.30;;;19.40;99.90;;;;;;5105698;28;20044;-83
2022/09/11 07:53:48;;;;;;;0.10;0.10;;;19.40;99.90;;;;;;5086406;28;20845;-77
2022/09/11 07:56:23;;;;;;;0.10;0.10;;;19.60;99.90;;;;;;5105498;28;20028;-84
2022/09/11 07:58:49;;;;;;;0.10;0.10;;;18.70;99.90;;;;;;5105741;28;20019;-79
2022/09/11 08:01:24;;;;;;;0.10;0.10;;;19.60;99.90;;;;;;5089392;28;20012;-81
2022/09/11 08:03:57;;;;;;;0.10;0.10;;;19.50;99.90;;;;;;5108476;28;20099;-84
2022/09/11 08:06:26;;;;;;;0.80;0.80;;;19.50;99.90;;;;;;5087454;28;20038;-80
2022/09/11 08:08:57;;;;;;;0.10;0.10;;;19.50;99.90;;;;;;5095024;28;20050;-94
2022/09/11 08:11:24;;;;;;;0.10;0.10;;;19.70;99.90;;;;;;5108745;28;20043;-77
2022/09/11 08:13:54;;;;;;;1.08;0.73;;;19.60;99.90;;;;;;5107396;28;20020;-78
2022/09/11 08:16:24;;;;;;;0.10;0.10;;;19.30;99.90;;;;;;5090633;28;20036;-83
2022/09/11 08:18:50;;;;;;;0.10;0.10;;;19.60;99.90;;;;;;5085638;28;20070;-76
2022/09/11 08:21:18;;;;;;;0.10;0.10;;;20.00;99.90;;;;;;5104676;28;20100;-81
2022/09/11 08:23:45;;;;;;;0.10;0.10;;;19.50;99.90;;;;;;5104815;28;20037;-80
2022/09/11 08:26:20;;;;;;;0.10;0.10;;;19.70;99.90;;;;;;5108966;28;20071;-91
2022/09/11 08:28:51;;;;;;;0.05;0.05;;;19.40;99.90;;;;;;5096451;28;20221;-89
2022/09/11 08:31:19;;;;;;;0.10;0.10;;;19.30;99.90;;;;;;5105808;28;20023;-77
2022/09/11 08:33:45;;;;;;;0.10;0.10;;;19.30;99.90;;;;;;5104237;28;20024;-79
2022/09/11 08:36:14;;;;;;;0.05;0.05;;;19.40;99.90;;;;;;5106470;28;20012;-83
2022/09/11 08:38:42;;;;;;;0.00;0.00;;;20.90;99.90;;;;;;5111785;28;20689;-78
2022/09/11 08:41:23;;;;;;;0.10;0.10;;;19.30;99.90;;;;;;5108163;28;20043;-81
2022/09/11 08:44:14;;;;;;;0.13;0.13;;;19.30;99.90;;;;;;5104717;28;20022;-81
2022/09/11 08:46:44;;;;;;;0.00;0.00;;;19.60;99.90;;;;;;5104896;28;20042;-88
2022/09/11 08:49:15;;;;;;;0.10;0.10;;;19.70;99.90;;;;;;5106482;28;20028;-77
2022/09/11 08:51:43;;;;;;;0.10;0.10;;;19.70;99.90;;;;;;5104304;28;20103;-79
2022/09/11 08:54:22;;;;;;;0.10;0.10;;;20.50;99.90;;;;;;5103374;28;20027;-83
2022/09/11 08:56:50;;;;;;;0.10;0.10;;;19.80;99.90;;;;;;5106328;28;20038;-90
2022/09/11 08:59:34;;;;;;;0.05;0.05;;;19.90;99.90;;;;;;5111003;28;20050;-80
2022/09/11 09:02:40;;;;;;;0.00;0.00;;;20.40;99.90;;;;;;5112506;28;20039;-88
2022/09/11 09:05:44;;;;;;;0.45;0.45;;;20.40;99.90;;;;;;5090431;28;20540;-82
2022/09/11 09:08:30;;;;;;;;;;;20.50;99.90;;;;;;5108061;28;20091;-84
2022/09/11 09:11:06;;;;;;;0.00;0.00;;;20.60;99.90;;;;;;5133444;28;19903;-83
2022/09/11 09:14:04;;;;;;;0.00;0.00;;;20.60;99.90;;;;;;5115587;28;20016;-82
2022/09/11 09:16:36;;;;;;;0.10;0.10;;;20.90;99.90;;;;;;5135619;28;20038;-81
2022/09/11 09:19:09;;;;;;;0.00;0.00;;;20.90;99.90;;;;;;5134373;28;20023;-78
2022/09/11 09:21:54;;;;;;;0.43;0.43;;;21.40;99.90;;;;;;5129929;28;20022;-88
2022/09/11 09:24:20;;;;;;;0.00;0.00;;;21.50;99.90;;;;;;5125642;28;20054;-85
2022/09/11 09:26:55;;;;;;;0.00;0.00;;;20.90;99.90;;;;;;5104882;28;20020;-91
2022/09/11 09:29:27;;;;;;;0.40;0.40;;;20.80;99.90;;;;;;5100763;28;20047;-77
2022/09/11 09:32:00;;;;;;;0.10;0.10;;;20.80;99.90;;;;;;5103552;28;20012;-88
2022/09/11 09:34:33;;;;;;;0.03;0.03;;;20.90;99.90;;;;;;5128750;28;20023;-94
2022/09/11 09:37:11;;;;;;;0.35;0.35;;;21.00;99.90;;;;;;5124462;28;20104;-77
2022/09/11 09:39:38;;;;;;;0.10;0.10;;;20.90;99.90;;;;;;5104512;28;20023;-95
2022/09/11 09:42:48;;;;;;;0.00;0.00;;;17.80;99.90;;;;;;5104410;28;20088;-93
2022/09/11 09:45:37;;;;;;;0.10;0.10;;;20.90;99.90;;;;;;5037487;28;20107;-91
2022/09/11 09:48:10;;;;;;;1.50;1.42;;;17.30;99.90;;;;;;5031883;28;20503;-82
2022/09/11 09:51:14;;;;;;;0.10;0.10;;;20.30;99.90;;;;;;5038260;28;20014;-79
2022/09/11 09:53:40;;;;;;;;;;;18.00;99.90;;;;;;5012640;28;20029;-83
2022/09/11 09:56:39;;;;;;;0.10;0.10;;;20.20;99.90;;;;;;5043780;28;19967;-88
2022/09/11 09:59:21;;;;;;;0.00;0.00;;;20.10;99.90;;;;;;5040061;28;20097;-86
2022/09/11 10:01:56;;;;;;;0.03;0.03;;;20.10;99.90;;;;;;5033535;28;20103;-90
2022/09/11 10:04:28;;;;;;;0.28;0.28;;;20.10;99.90;;;;;;5033438;28;20018;-91
2022/09/11 10:07:23;;;;;;;0.00;0.00;;;20.10;99.90;;;;;;5036027;28;20029;-84
2022/09/11 10:09:54;;;;;;;0.10;0.10;;;19.70;99.90;;;;;;5030718;28;20025;-85
2022/09/11 10:12:31;;;;;;;0.32;0.32;;;19.60;99.90;;;;;;5036372;28;20029;-86
2022/09/11 10:15:01;;;;;;;0.00;0.00;;;19.40;99.90;;;;;;5034013;28;20029;-84
2022/09/11 10:17:31;;;;;;;0.38;0.38;;;;;;;;;;5027910;28;20057;-87
2022/09/11 10:20:22;;;;;;;0.20;0.20;;;18.70;99.90;;;;;;5085070;28;20115;-95
2022/09/11 10:22:49;;;;;;;0.00;0.00;;;18.40;99.90;;;;;;5068409;28;20537;-93
2022/09/11 10:25:17;;;;;;;0.10;0.10;;;18.60;99.90;;;;;;5091674;28;20020;-89
2022/09/11 10:28:04;;;;;;;0.10;0.10;;;18.10;99.90;;;;;;5102684;28;20402;-88
2022/09/11 10:30:34;;;;;;;0.10;0.10;;;18.00;99.90;;;;;;5075140;28;20028;-78
2022/09/11 10:33:04;;;;;;;0.00;0.00;;;17.90;99.90;;;;;;5090405;28;20009;-95
2022/09/11 10:35:34;;;;;;;0.10;0.10;;;14.30;99.90;;;;;;5073446;28;20012;-83
2022/09/11 10:38:22;;;;;;;0.10;0.10;;;17.90;99.90;;;;;;5085348;28;20028;-91
2022/09/11 10:41:00;;;;;;;0.00;0.00;;;17.70;99.90;;;;;;5077917;28;20032;-92
2022/09/11 10:43:46;;;;;;;0.10;0.10;;;17.60;99.90;;;;;;5070600;28;20028;-94
2022/09/11 10:46:31;;;;;;;0.10;0.10;;;17.60;99.90;;;;;;5095348;28;20024;-81
2022/09/11 10:49:27;;;;;;;0.10;0.10;;;18.30;99.90;;;;;;5092193;28;20027;-78
2022/09/11 10:52:06;;;;;;;0.00;0.00;;;19.30;99.90;;;;;;5042302;28;20722;-76
2022/09/11 10:54:44;;;;;;;0.10;0.10;;;19.20;99.90;;;;;;5038667;28;20055;-85
2022/09/11 10:57:25;;;;;;;0.10;0.10;;;19.50;99.90;;;;;;5022660;28;20064;-83
2022/09/11 11:00:24;;;;;;;0.10;0.10;;;20.10;99.90;;;;;;5038805;28;20023;-73
2022/09/11 11:02:52;;;;;;;0.10;0.10;;;20.30;99.90;;;;;;4969304;28;20208;-91
2022/09/11 11:05:25;;;;;;;0.00;0.00;;;20.30;99.90;;;;;;4962560;28;20019;-95
2022/09/11 11:08:28;;;;;;;0.08;0.08;;;20.20;99.90;;;;;;4964093;28;20069;-88
2022/09/11 11:11:13;;;;;;;0.10;0.10;;;20.40;99.90;;;;;;4937801;29;20047;-95
2022/09/11 11:14:05;;;;;;;0.10;0.10;;;20.40;99.90;;;;;;4935809;29;20024;-82
2022/09/11 11:16:53;;;;;;;0.10;0.10;;;20.30;99.90;;;;;;4943662;29;20046;-95
2022/09/11 11:20:06;;;;;;;0.10;0.10;;;20.20;99.90;;;;;;4943778;29;20040;-92
2022/09/11 11:23:08;;;;;;;0.00;0.00;;;20.60;99.90;;;;;;4943547;29;20106;-89
2022/09/11 11:26:07;;;;;;;0.10;0.10;;;20.30;99.90;;;;;;4937765;28;20032;-93
2022/09/11 11:29:17;;;;;;;0.00;0.00;;;19.60;99.90;;;;;;4880593;29;20092;-83
2022/09/11 11:32:29;;;;;;;0.10;0.10;;;20.20;99.90;;;;;;4871754;29;20325;-94
2022/09/11 11:35:06;;;;;;;0.03;0.03;;;20.10;99.90;;;;;;4867197;29;20611;-80
2022/09/11 11:37:45;;;;;;;0.30;0.30;;;20.20;99.90;;;;;;4867523;29;20041;-79
2022/09/11 11:40:35;;;;;;;0.10;0.10;;;20.10;99.90;;;;;;4869370;29;20029;-81
2022/09/11 11:43:20;;;;;;;0.32;0.32;;;22.40;99.90;;;;;;4888321;29;20033;-88
2022/09/11 11:46:03;;;;;;;0.00;0.00;;;20.30;99.90;;;;;;4899031;29;20120;-81
2022/09/11 11:48:43;;;;;;;0.17;0.17;;;20.40;99.90;;;;;;4906619;29;20238;-80
2022/09/11 11:51:17;;;;;;;0.00;0.00;;;20.50;99.90;;;;;;4909212;29;20028;-80
2022/09/11 11:57:24;;;;;;;0.10;0.10;;;20.60;99.90;;;;;;4842248;26;20333;-80
2022/09/11 12:00:14;;;;;;;0.10;0.10;;;20.60;99.90;;;;;;5091102;28;20032;-90
2022/09/11 12:03:08;;;;;;;0.10;0.10;;;20.80;99.90;;;;;;5081617;28;20031;-84
2022/09/11 12:05:39;;;;;;;0.10;0.10;;;20.80;99.90;;;;;;5034754;28;20046;-81
2022/09/11 12:08:12;;;;;;;0.10;0.10;;;21.00;99.90;;;;;;5077236;28;20080;-80
2022/09/11 12:10:40;;;;;;;;;;;20.90;99.90;;;;;;5080321;28;20055;-79
2022/09/11 12:13:17;;;;;;;0.10;0.10;;;21.10;99.90;;;;;;5088993;28;19904;-82
2022/09/11 12:16:01;;;;;;;0.10;0.10;;;20.80;99.90;;;;;;5089134;28;20103;-78
2022/09/11 12:18:28;;;;;;;0.10;0.10;;;20.60;99.90;;;;;;5090373;28;20138;-80
2022/09/11 12:21:25;;;;;;;0.10;0.10;;;20.60;99.90;;;;;;5090333;28;20047;-87
2022/09/11 12:24:10;;;;;;;0.10;0.10;;;20.40;99.90;;;;;;5068364;28;20100;-86
2022/09/11 12:26:48;;;;;;;0.10;0.10;;;20.50;99.90;;;;;;5091143;28;20032;-96
2022/09/11 12:29:14;;;;;;;1.00;1.00;;;20.50;99.90;;;;;;5086240;28;20085;-85
2022/09/11 12:31:49;;;;;;;0.10;0.10;;;20.50;99.90;;;;;;5087427;28;20016;-93
2022/09/11 12:34:37;;;;;;;0.10;0.10;;;19.60;99.90;;;;;;5071426;28;20496;-88
2022/09/11 12:37:13;;;;;;;0.10;0.10;;;20.40;99.90;;;;;;5088526;28;20108;-89
2022/09/11 12:39:51;;;;;;;0.03;0.03;;;17.60;99.90;;;;;;5088202;28;20099;-92
2022/09/11 12:42:24;;;;;;;0.10;0.10;;;20.50;99.90;;;;;;5069462;28;20566;-91
2022/09/11 12:44:50;;;;;;;0.10;0.10;;;20.50;99.90;;;;;;5087351;28;20024;-86
2022/09/11 12:47:37;;;;;;;0.10;0.10;;;20.90;99.90;;;;;;5089612;28;20028;-94
2022/09/11 12:50:27;;;;;;;1.65;1.55;;;20.40;99.90;;;;;;5093216;28;20012;-79
2022/09/11 12:53:01;;;;;;;0.10;0.10;;;20.70;99.90;;;;;;5078020;28;20032;-89
2022/09/11 12:55:42;;;;;;;0.10;0.10;;;18.90;99.90;;;;;;5102513;28;20704;-88
2022/09/11 12:58:34;;;;;;;0.10;0.10;;;22.00;99.90;;;;;;5088588;28;20024;-80
2022/09/11 13:01:23;;;;;;;0.20;0.20;;;20.80;99.90;;;;;;5064049;28;20689;-90
2022/09/11 13:07:59;;;;;;;;;;;;;;;;;;;;;
2022/09/11 13:10:51;;;;;;;0.08;0.08;;;21.20;99.90;;;;;;4946207;29;20039;-87
2022/09/11 13:13:44;;;;;;;0.10;0.10;;;22.20;99.90;;;;;;4911888;29;20039;-83
2022/09/11 13:16:33;;;;;;;0.20;0.20;;;22.70;99.90;;;;;;4890115;29;20796;-96
2022/09/11 13:19:19;;;;;;;0.00;0.00;;;22.60;99.90;;;;;;4871793;29;20122;-94
2022/09/11 13:21:55;;;;;;;0.10;0.10;;;22.90;99.90;;;;;;4888726;29;20033;-80
2022/09/11 13:24:26;;;;;;;0.00;0.00;;;23.10;99.90;;;;;;4875505;29;20029;-88
2022/09/11 13:27:04;;;;;;;0.00;0.00;;;23.40;98.80;;;;;;4892397;29;20046;-84
2022/09/11 13:29:46;;;;;;;;;;;;;;;;;;;;;
2022/09/11 13:32:29;;;;;;;0.00;0.00;;;20.90;98.10;;;;;;4890350;29;20045;-90
2022/09/11 13:35:09;;;;;;;0.00;0.00;;;24.40;96.90;;;;;;4890226;29;20036;-92
2022/09/11 13:38:08;;;;;;;0.00;0.00;;;24.20;97.40;;;;;;4874548;29;20646;-81
2022/09/11 13:40:48;;;;;;;0.00;0.00;;;24.00;96.50;;;;;;4902211;29;20047;-88